Time;durP1;ratioP1;P1;durP2;ratioP2;P2;SDS_P1;SDS_P2;PMS_P1;PMS_P2;Temp;Humidity;BMP_temperature;BMP_pressure;BME280_temperature;BME280_humidity;BME280_pressure;Samples;Min_cycle;Max_cycle;Signal;HPM_P1;HPM_P2
2022/08/21 00:00:41;;;;;;;;;;;20.10;72.40;;;;;;5126968;27;19964;-61
2022/08/21 00:03:09;;;;;;;;;;;20.10;72.50;;;;;;5125367;27;19934;-62
2022/08/21 00:05:38;;;;;;;;;;;20.00;72.60;;;;;;5128637;27;19926;-62
2022/08/21 00:08:05;;;;;;;;;;;19.90;72.80;;;;;;5126007;27;19923;-61
2022/08/21 00:10:33;;;;;;;;;;;19.90;72.90;;;;;;5128409;27;19923;-62
2022/08/21 00:13:02;;;;;;;;;;;19.90;72.80;;;;;;5132511;27;19941;-61
2022/08/21 00:15:29;;;;;;;;;;;19.90;72.70;;;;;;5132051;27;19931;-62
2022/08/21 00:17:56;;;;;;;;;;;19.90;72.60;;;;;;5133031;27;19919;-62
2022/08/21 00:20:24;;;;;;;;;;;19.90;72.60;;;;;;5127979;27;19928;-61
2022/08/21 00:22:51;;;;;;;;;;;19.80;72.50;;;;;;5126984;27;19927;-63
2022/08/21 00:25:18;;;;;;;;;;;19.80;72.30;;;;;;5131864;27;19919;-61
2022/08/21 00:27:46;;;;;;;;;;;19.80;72.20;;;;;;5130006;27;19919;-61
2022/08/21 00:30:15;;;;;;;;;;;19.80;72.10;;;;;;5129590;27;20337;-62
2022/08/21 00:32:42;;;;;;;;;;;19.70;72.00;;;;;;5129564;27;19919;-62
2022/08/21 00:35:11;;;;;;;;;;;19.70;72.00;;;;;;5124530;27;19919;-62
2022/08/21 00:37:38;;;;;;;;;;;19.60;71.90;;;;;;5129534;27;19934;-62
2022/08/21 00:40:06;;;;;;;;;;;19.60;71.90;;;;;;5126568;27;19919;-61
2022/08/21 00:42:32;;;;;;;;;;;19.60;71.90;;;;;;5131604;27;20438;-61
2022/08/21 00:44:59;;;;;;;;;;;19.60;71.90;;;;;;5131471;27;19920;-61
2022/08/21 00:47:27;;;;;;;;;;;19.50;71.90;;;;;;5129545;27;19920;-61
2022/08/21 00:49:54;;;;;;;;;;;19.60;71.90;;;;;;5131457;27;19930;-61
2022/08/21 00:52:25;;;;;;;;;;;19.50;71.90;;;;;;5132151;27;19926;-62
2022/08/21 00:54:52;;;;;;;;;;;19.40;72.00;;;;;;5125058;27;19926;-63
2022/08/21 00:57:21;;;;;;;;;;;19.40;72.10;;;;;;5128344;27;19927;-61
2022/08/21 00:59:50;;;;;;;;;;;19.30;72.10;;;;;;5123564;27;20399;-62
2022/08/21 01:02:17;;;;;;;;;;;19.30;72.20;;;;;;5128068;27;19928;-62
2022/08/21 01:04:45;;;;;;;;;;;19.30;72.20;;;;;;5128984;27;19920;-61
2022/08/21 01:07:12;;;;;;;;;;;19.20;72.20;;;;;;5131272;27;20002;-61
2022/08/21 01:09:40;;;;;;;;;;;19.30;72.30;;;;;;5128945;27;19927;-61
2022/08/21 01:12:07;;;;;;;;;;;19.20;72.40;;;;;;5127183;27;19946;-62
2022/08/21 01:14:34;;;;;;;;;;;19.10;72.50;;;;;;5130015;27;19933;-61
2022/08/21 01:17:02;;;;;;;;;;;19.10;72.50;;;;;;5128075;27;19919;-61
2022/08/21 01:19:30;;;;;;;;;;;19.10;72.50;;;;;;5128106;27;20353;-63
2022/08/21 01:21:59;;;;;;;;;;;19.10;72.70;;;;;;5122979;27;19957;-61
2022/08/21 01:24:26;;;;;;;;;;;19.00;72.70;;;;;;5126078;27;19920;-61
2022/08/21 01:26:53;;;;;;;;;;;19.00;72.60;;;;;;5133558;27;20292;-61
2022/08/21 01:29:27;;;;;;;;;;;19.00;72.60;;;;;;5132657;27;19951;-61
2022/08/21 01:31:54;;;;;;;;;;;18.90;72.60;;;;;;5130777;27;19923;-61
2022/08/21 01:34:20;;;;;;;;;;;18.90;72.60;;;;;;5132052;27;20494;-61
2022/08/21 01:36:48;;;;;;;;;;;18.90;72.60;;;;;;5129698;27;19919;-61
2022/08/21 01:39:16;;;;;;;;;;;18.90;72.50;;;;;;5128374;27;20572;-61
2022/08/21 01:41:43;;;;;;;;;;;19.00;72.30;;;;;;5132479;27;20376;-62
2022/08/21 01:44:10;;;;;;;;;;;19.00;72.20;;;;;;5133668;27;19934;-61
2022/08/21 01:46:37;;;;;;;;;;;18.90;72.40;;;;;;5130524;27;19923;-61
2022/08/21 01:49:04;;;;;;;;;;;18.90;72.60;;;;;;5133918;27;19928;-62
2022/08/21 01:51:31;;;;;;;;;;;18.80;72.60;;;;;;5135709;27;19923;-62
2022/08/21 01:53:57;;;;;;;;;;;18.80;72.70;;;;;;5133421;27;19923;-62
2022/08/21 01:56:27;;;;;;;;;;;18.80;72.70;;;;;;5134843;27;19923;-61
2022/08/21 01:58:54;;;;;;;;;;;18.80;72.80;;;;;;5133627;27;19920;-61
2022/08/21 02:01:21;;;;;;;;;;;18.80;72.80;;;;;;5131207;27;19926;-61
2022/08/21 02:03:47;;;;;;;;;;;18.70;72.90;;;;;;5134623;27;20246;-61
2022/08/21 02:06:17;;;;;;;;;;;18.70;73.10;;;;;;5131901;27;19919;-61
2022/08/21 02:08:44;;;;;;;;;;;18.70;73.10;;;;;;5132744;27;19954;-61
2022/08/21 02:11:11;;;;;;;;;;;18.70;73.10;;;;;;5132668;27;19920;-61
2022/08/21 02:13:39;;;;;;;;;;;18.70;73.20;;;;;;5134499;27;19919;-61
2022/08/21 02:16:07;;;;;;;;;;;18.60;73.30;;;;;;5133526;27;19926;-61
2022/08/21 02:18:34;;;;;;;;;;;18.60;73.40;;;;;;5134731;27;19923;-60
2022/08/21 02:21:00;;;;;;;;;;;18.60;73.60;;;;;;5135170;27;20153;-61
2022/08/21 02:23:28;;;;;;;;;;;18.60;73.70;;;;;;5129373;27;19919;-61
2022/08/21 02:25:55;;;;;;;;;;;18.50;73.80;;;;;;5127639;27;19938;-60
2022/08/21 02:28:24;;;;;;;;;;;18.50;73.90;;;;;;5137055;27;19980;-60
2022/08/21 02:30:53;;;;;;;;;;;18.50;74.00;;;;;;5134823;27;19919;-61
2022/08/21 02:33:20;;;;;;;;;;;18.40;74.00;;;;;;5128146;27;20035;-61
2022/08/21 02:35:47;;;;;;;;;;;18.40;73.90;;;;;;5128064;27;20468;-61
2022/08/21 02:38:15;;;;;;;;;;;18.30;74.00;;;;;;5134085;27;20022;-62
2022/08/21 02:40:43;;;;;;;;;;;18.30;74.00;;;;;;5130885;27;19947;-62
2022/08/21 02:43:10;;;;;;;;;;;18.30;74.10;;;;;;5133388;27;19943;-60
2022/08/21 02:45:37;;;;;;;;;;;18.20;74.10;;;;;;5126931;27;19920;-61
2022/08/21 02:48:06;;;;;;;;;;;18.20;74.10;;;;;;5134066;27;19940;-62
2022/08/21 02:50:35;;;;;;;;;;;18.30;74.20;;;;;;5125501;27;20407;-61
2022/08/21 02:53:02;;;;;;;;;;;18.20;74.30;;;;;;5130527;27;19930;-61
2022/08/21 02:55:31;;;;;;;;;;;18.20;74.40;;;;;;5131376;27;19928;-61
2022/08/21 02:57:59;;;;;;;;;;;18.20;74.50;;;;;;5130689;27;19923;-62
2022/08/21 03:00:26;;;;;;;;;;;18.20;74.60;;;;;;5129021;27;20029;-61
2022/08/21 03:02:55;;;;;;;;;;;18.10;74.80;;;;;;5124078;27;19919;-61
2022/08/21 03:05:24;;;;;;;;;;;18.10;74.80;;;;;;5125834;27;19972;-60
2022/08/21 03:07:52;;;;;;;;;;;18.10;74.80;;;;;;5127747;27;19926;-62
2022/08/21 03:10:19;;;;;;;;;;;18.10;74.80;;;;;;5125906;27;20029;-60
2022/08/21 03:12:46;;;;;;;;;;;18.10;74.80;;;;;;5130793;27;19926;-61
2022/08/21 03:15:14;;;;;;;;;;;18.10;74.70;;;;;;5128481;27;19919;-62
2022/08/21 03:17:41;;;;;;;;;;;18.10;74.70;;;;;;5128891;27;19919;-61
2022/08/21 03:20:09;;;;;;;;;;;18.00;74.80;;;;;;5129523;27;20530;-61
2022/08/21 03:22:37;;;;;;;;;;;18.00;74.80;;;;;;5130868;27;19927;-61
2022/08/21 03:25:04;;;;;;;;;;;17.90;74.80;;;;;;5128100;27;19930;-60
2022/08/21 03:27:31;;;;;;;;;;;17.90;74.90;;;;;;5127996;27;20261;-62
2022/08/21 03:29:58;;;;;;;;;;;17.90;75.00;;;;;;5134105;27;19919;-62
2022/08/21 03:32:25;;;;;;;;;;;17.80;75.00;;;;;;5128570;27;20391;-61
2022/08/21 03:34:51;;;;;;;;;;;17.80;75.00;;;;;;5131449;27;20490;-61
2022/08/21 03:37:18;;;;;;;;;;;17.70;74.90;;;;;;5127780;27;19919;-62
2022/08/21 03:39:46;;;;;;;;;;;17.70;74.90;;;;;;5130094;27;19926;-62
2022/08/21 03:42:13;;;;;;;;;;;17.70;75.00;;;;;;5132363;27;19920;-62
2022/08/21 03:44:40;;;;;;;;;;;17.70;74.90;;;;;;5130338;27;19945;-62
2022/08/21 03:47:07;;;;;;;;;;;17.70;75.00;;;;;;5130371;27;20368;-62
2022/08/21 03:49:34;;;;;;;;;;;17.70;75.00;;;;;;5129998;27;19929;-62
2022/08/21 03:52:00;;;;;;;;;;;17.70;75.00;;;;;;5132374;27;19980;-61
2022/08/21 03:54:27;;;;;;;;;;;17.70;75.00;;;;;;5132719;27;19927;-62
2022/08/21 03:56:55;;;;;;;;;;;17.70;75.00;;;;;;5127915;27;19930;-62
2022/08/21 03:59:22;;;;;;;;;;;17.70;75.00;;;;;;5125700;27;19919;-62
2022/08/21 04:01:53;;;;;;;;;;;17.60;75.20;;;;;;5125893;27;19926;-62
2022/08/21 04:04:19;;;;;;;;;;;17.60;75.30;;;;;;5125560;27;20360;-62
2022/08/21 04:06:46;;;;;;;;;;;17.50;75.30;;;;;;5132701;27;19950;-62
2022/08/21 04:09:13;;;;;;;;;;;17.60;75.40;;;;;;5133020;27;19934;-62
2022/08/21 04:11:40;;;;;;;;;;;17.60;75.40;;;;;;5131337;27;19919;-62
2022/08/21 04:14:08;;;;;;;;;;;17.60;75.40;;;;;;5128652;27;19979;-62
2022/08/21 04:16:34;;;;;;;;;;;17.60;75.50;;;;;;5129809;27;19927;-62
2022/08/21 04:19:01;;;;;;;;;;;17.50;75.60;;;;;;5133471;27;20261;-62
2022/08/21 04:21:28;;;;;;;;;;;17.50;75.70;;;;;;5130711;27;19919;-62
2022/08/21 04:23:55;;;;;;;;;;;17.50;75.80;;;;;;5126395;27;20433;-62
2022/08/21 04:26:22;;;;;;;;;;;17.40;75.80;;;;;;5127701;27;20717;-61
2022/08/21 04:28:49;;;;;;;;;;;17.40;75.90;;;;;;5129500;27;19926;-61
2022/08/21 04:31:17;;;;;;;;;;;17.40;75.80;;;;;;5127581;27;19978;-62
2022/08/21 04:33:44;;;;;;;;;;;17.30;75.70;;;;;;5135153;27;19919;-61
2022/08/21 04:36:11;;;;;;;;;;;17.40;75.70;;;;;;5132342;27;19937;-62
2022/08/21 04:38:38;;;;;;;;;;;17.40;75.70;;;;;;5122966;27;19959;-62
2022/08/21 04:41:05;;;;;;;;;;;17.40;75.50;;;;;;5127455;27;19976;-62
2022/08/21 04:43:32;;;;;;;;;;;17.30;75.40;;;;;;5128027;27;20018;-62
2022/08/21 04:46:00;;;;;;;;;;;17.30;75.40;;;;;;5127564;27;19973;-62
2022/08/21 04:48:28;;;;;;;;;;;17.30;75.40;;;;;;5129491;27;20567;-62
2022/08/21 04:50:58;;;;;;;;;;;17.30;75.40;;;;;;5132570;27;19927;-62
2022/08/21 04:53:27;;;;;;;;;;;17.30;75.30;;;;;;5130278;27;20360;-62
2022/08/21 04:55:55;;;;;;;;;;;17.20;75.30;;;;;;5128801;27;20297;-62
2022/08/21 04:58:23;;;;;;;;;;;17.30;75.30;;;;;;5129862;27;19926;-63
2022/08/21 05:00:52;;;;;;;;;;;17.30;75.30;;;;;;5125331;27;19926;-62
2022/08/21 05:03:19;;;;;;;;;;;17.30;75.00;;;;;;5129833;27;20142;-62
2022/08/21 05:05:47;;;;;;;;;;;17.30;75.10;;;;;;5121608;27;19926;-62
2022/08/21 05:08:16;;;;;;;;;;;17.30;75.20;;;;;;5129332;27;19923;-62
2022/08/21 05:10:44;;;;;;;;;;;17.30;75.30;;;;;;5125858;27;19927;-62
2022/08/21 05:13:12;;;;;;;;;;;17.30;75.50;;;;;;5126793;27;19920;-62
2022/08/21 05:15:39;;;;;;;;;;;17.30;75.80;;;;;;5127973;27;19925;-62
2022/08/21 05:18:06;;;;;;;;;;;17.30;76.00;;;;;;5132681;27;20273;-62
2022/08/21 05:20:34;;;;;;;;;;;17.40;75.90;;;;;;5130925;27;19919;-61
2022/08/21 05:23:07;;;;;;;;;;;17.40;75.80;;;;;;5130506;27;20277;-63
2022/08/21 05:25:34;;;;;;;;;;;17.50;75.60;;;;;;5127280;27;20288;-62
2022/08/21 05:28:01;;;;;;;;;;;17.50;75.50;;;;;;5130764;27;20364;-62
2022/08/21 05:30:28;;;;;;;;;;;17.60;75.30;;;;;;5138437;27;20303;-62
2022/08/21 05:32:56;;;;;;;;;;;17.60;75.60;;;;;;5130872;27;19927;-62
2022/08/21 05:35:23;;;;;;;;;;;17.60;76.80;;;;;;5131025;27;20405;-62
2022/08/21 05:37:50;;;;;;;;;;;17.60;76.90;;;;;;5131519;27;19926;-62
2022/08/21 05:40:18;;;;;;;;;;;17.60;76.90;;;;;;5130962;27;20321;-62
2022/08/21 05:42:45;;;;;;;;;;;17.60;77.20;;;;;;5125687;27;19923;-62
2022/08/21 05:45:12;;;;;;;;;;;17.60;77.40;;;;;;5131877;27;19919;-62
2022/08/21 05:47:39;;;;;;;;;;;17.70;77.40;;;;;;5131630;27;19964;-62
2022/08/21 05:50:06;;;;;;;;;;;17.60;77.80;;;;;;5128605;27;19967;-61
2022/08/21 05:52:33;;;;;;;;;;;17.60;78.20;;;;;;5121950;27;19919;-63
2022/08/21 05:54:59;;;;;;;;;;;17.70;78.10;;;;;;5118812;27;19919;-62
2022/08/21 05:57:27;;;;;;;;;;;17.70;78.20;;;;;;5129820;27;19919;-61
2022/08/21 05:59:54;;;;;;;;;;;17.80;78.30;;;;;;5125084;27;19923;-62
2022/08/21 06:02:21;;;;;;;;;;;17.80;78.10;;;;;;5128072;27;19919;-62
2022/08/21 06:04:48;;;;;;;;;;;17.80;78.10;;;;;;5130953;27;20002;-62
2022/08/21 06:07:15;;;;;;;;;;;17.80;78.10;;;;;;5122868;27;19930;-62
2022/08/21 06:09:42;;;;;;;;;;;17.80;78.10;;;;;;5128039;27;20026;-62
2022/08/21 06:12:09;;;;;;;;;;;17.90;77.90;;;;;;5130980;27;20314;-62
2022/08/21 06:14:38;;;;;;;;;;;17.90;77.90;;;;;;5125958;27;20006;-62
2022/08/21 06:17:05;;;;;;;;;;;17.90;77.80;;;;;;5132507;27;19923;-63
2022/08/21 06:19:32;;;;;;;;;;;17.90;77.60;;;;;;5127906;27;19927;-62
2022/08/21 06:21:59;;;;;;;;;;;17.90;77.30;;;;;;5133518;27;20307;-63
2022/08/21 06:24:26;;;;;;;;;;;18.10;77.00;;;;;;5130304;27;19923;-62
2022/08/21 06:26:53;;;;;;;;;;;17.90;77.10;;;;;;5127064;27;19938;-61
2022/08/21 06:29:20;;;;;;;;;;;18.00;77.20;;;;;;5126942;27;20296;-61
2022/08/21 06:31:49;;;;;;;;;;;18.10;77.10;;;;;;5129802;27;20222;-61
2022/08/21 06:34:16;;;;;;;;;;;18.10;77.20;;;;;;5128489;27;19923;-63
2022/08/21 06:36:43;;;;;;;;;;;18.10;77.40;;;;;;5123099;27;19919;-62
2022/08/21 06:39:10;;;;;;;;;;;18.20;77.40;;;;;;5125526;27;19919;-62
2022/08/21 06:41:36;;;;;;;;;;;18.20;77.40;;;;;;5126710;27;19972;-62
2022/08/21 06:44:03;;;;;;;;;;;18.40;77.20;;;;;;5132886;27;20422;-61
2022/08/21 06:46:30;;;;;;;;;;;18.50;76.90;;;;;;5126627;27;19926;-62
2022/08/21 06:48:59;;;;;;;;;;;18.60;76.70;;;;;;5127778;27;19919;-63
2022/08/21 06:51:26;;;;;;;;;;;18.70;76.50;;;;;;5134155;27;19927;-61
2022/08/21 06:53:53;;;;;;;;;;;18.80;76.40;;;;;;5135370;27;20029;-62
2022/08/21 06:56:20;;;;;;;;;;;18.90;76.00;;;;;;5129684;27;19919;-62
2022/08/21 06:58:47;;;;;;;;;;;19.00;76.00;;;;;;5134195;27;20026;-61
2022/08/21 07:01:13;;;;;;;;;;;19.10;76.00;;;;;;5130154;27;19920;-61
2022/08/21 07:03:41;;;;;;;;;;;19.20;75.80;;;;;;5134163;27;20021;-61
2022/08/21 07:06:10;;;;;;;;;;;19.30;75.40;;;;;;5126510;27;19924;-61
2022/08/21 07:08:38;;;;;;;;;;;19.50;75.00;;;;;;5133114;27;19919;-63
2022/08/21 07:11:07;;;;;;;;;;;19.60;75.30;;;;;;5132418;27;19925;-62
2022/08/21 07:13:34;;;;;;;;;;;19.70;75.20;;;;;;5132237;27;19920;-61
2022/08/21 07:16:02;;;;;;;;;;;19.80;74.90;;;;;;5133445;27;20282;-62
2022/08/21 07:18:29;;;;;;;;;;;20.00;74.60;;;;;;5124302;27;19927;-61
2022/08/21 07:20:56;;;;;;;;;;;20.10;74.80;;;;;;5131549;27;19930;-63
2022/08/21 07:23:25;;;;;;;;;;;20.20;74.20;;;;;;5133826;27;19927;-62
2022/08/21 07:25:52;;;;;;;;;;;20.20;73.90;;;;;;5132685;27;19923;-62
2022/08/21 07:28:19;;;;;;;;;;;20.30;73.60;;;;;;5133985;27;20283;-63
2022/08/21 07:30:46;;;;;;;;;;;20.50;73.60;;;;;;5126252;27;19961;-62
2022/08/21 07:33:13;;;;;;;;;;;20.60;73.60;;;;;;5124400;27;19919;-62
2022/08/21 07:35:39;;;;;;;;;;;20.70;73.40;;;;;;5133096;27;19920;-62
2022/08/21 07:38:06;;;;;;;;;;;20.80;73.00;;;;;;5131694;27;20292;-63
2022/08/21 07:40:34;;;;;;;;;;;21.00;72.70;;;;;;5128603;27;19919;-63
2022/08/21 07:43:01;;;;;;;;;;;21.10;72.30;;;;;;5132290;27;19926;-63
2022/08/21 07:45:28;;;;;;;;;;;21.10;72.20;;;;;;5133095;27;20369;-62
2022/08/21 07:47:55;;;;;;;;;;;21.30;71.80;;;;;;5130680;27;19923;-63
2022/08/21 07:50:22;;;;;;;;;;;21.40;71.80;;;;;;5126481;27;19949;-62
2022/08/21 07:52:49;;;;;;;;;;;21.50;71.80;;;;;;5131029;27;19931;-63
2022/08/21 07:55:17;;;;;;;;;;;21.60;71.30;;;;;;5131173;27;19924;-62
2022/08/21 08:01:07;;;;;;;;;;;21.90;70.30;;;;;;5125789;27;20063;-63
2022/08/21 08:03:34;;;;;;;;;;;22.10;70.20;;;;;;5130910;27;19969;-62
2022/08/21 08:06:04;;;;;;;;;;;22.10;69.90;;;;;;5123980;27;19920;-62
2022/08/21 08:08:31;;;;;;;;;;;22.30;69.10;;;;;;5131050;27;20437;-62
2022/08/21 08:10:58;;;;;;;;;;;22.50;68.20;;;;;;5130559;27;19923;-63
2022/08/21 08:13:26;;;;;;;;;;;22.60;68.60;;;;;;5126241;27;19926;-62
2022/08/21 08:15:52;;;;;;;;;;;22.60;67.90;;;;;;5120189;27;19920;-62
2022/08/21 08:18:21;;;;;;;;;;;22.70;67.60;;;;;;5129973;27;19926;-62
2022/08/21 08:20:48;;;;;;;;;;;22.90;66.40;;;;;;5126210;27;20290;-62
2022/08/21 08:23:15;;;;;;;;;;;22.90;66.60;;;;;;5130254;27;20026;-61
2022/08/21 08:25:41;;;;;;;;;;;23.00;66.60;;;;;;5129874;27;19919;-62
2022/08/21 08:28:08;;;;;;;;;;;23.10;65.80;;;;;;5132557;27;19926;-62
2022/08/21 08:30:35;;;;;;;;;;;23.30;65.40;;;;;;5129741;27;19927;-62
2022/08/21 08:33:02;;;;;;;;;;;23.40;64.50;;;;;;5131043;27;19942;-62
2022/08/21 08:35:30;;;;;;;;;;;23.60;64.30;;;;;;5125356;27;19919;-61
2022/08/21 08:37:56;;;;;;;;;;;23.60;63.90;;;;;;5129774;27;19919;-63
2022/08/21 08:40:26;;;;;;;;;;;23.80;63.30;;;;;;5128371;27;20391;-61
2022/08/21 08:42:53;;;;;;;;;;;23.80;63.40;;;;;;5124528;27;20315;-62
2022/08/21 08:45:23;;;;;;;;;;;24.00;63.00;;;;;;5131904;27;19919;-62
2022/08/21 08:47:55;;;;;;;;;;;24.10;62.60;;;;;;5126504;27;19919;-61
2022/08/21 08:50:23;;;;;;;;;;;24.20;61.90;;;;;;5125711;27;19927;-62
2022/08/21 08:52:54;;;;;;;;;;;24.30;61.60;;;;;;5130348;27;19919;-61
2022/08/21 08:55:22;;;;;;;;;;;24.50;60.50;;;;;;5131948;27;19919;-62
2022/08/21 08:57:50;;;;;;;;;;;24.60;60.00;;;;;;5131839;27;19919;-61
2022/08/21 09:00:18;;;;;;;;;;;24.70;59.20;;;;;;5127441;27;20408;-61
2022/08/21 09:02:46;;;;;;;;;;;24.80;57.70;;;;;;5129105;27;20467;-61
2022/08/21 09:05:20;;;;;;;;;;;25.00;58.10;;;;;;5126035;27;19923;-60
2022/08/21 09:07:51;;;;;;;;;;;25.10;58.00;;;;;;5131980;27;19920;-61
2022/08/21 09:10:20;;;;;;;;;;;25.10;57.20;;;;;;5127723;27;19927;-62
2022/08/21 09:12:51;;;;;;;;;;;25.10;56.70;;;;;;5128657;27;20023;-62
2022/08/21 09:15:22;;;;;;;;;;;25.00;55.40;;;;;;5124278;27;19931;-62
2022/08/21 09:18:00;;;;;;;;;;;25.00;55.50;;;;;;5128909;27;20368;-61
2022/08/21 09:20:33;;;;;;;;;;;25.10;55.20;;;;;;5128933;27;20004;-62
2022/08/21 09:23:05;;;;;;;;;;;25.30;54.20;;;;;;5131883;27;20288;-60
2022/08/21 09:25:35;;;;;;;;;;;25.30;54.90;;;;;;5129621;27;19942;-61
2022/08/21 09:28:02;;;;;;;;;;;25.20;53.40;;;;;;5132006;27;19919;-62
2022/08/21 09:30:30;;;;;;;;;;;25.40;53.00;;;;;;5129408;27;19920;-61
2022/08/21 09:32:57;;;;;;;;;;;25.40;52.80;;;;;;5125541;27;19920;-62
2022/08/21 09:35:24;;;;;;;;;;;25.50;51.90;;;;;;5120148;27;19923;-62
2022/08/21 09:37:52;;;;;;;;;;;25.60;51.20;;;;;;5129338;27;19919;-62
2022/08/21 09:40:23;;;;;;;;;;;25.70;51.70;;;;;;5130508;27;20017;-61
2022/08/21 09:42:56;;;;;;;;;;;25.80;51.50;;;;;;5127775;27;19924;-61
2022/08/21 09:45:23;;;;;;;;;;;26.00;51.70;;;;;;5132839;27;20458;-61
2022/08/21 09:47:50;;;;;;;;;;;26.00;51.50;;;;;;5127777;27;19920;-61
2022/08/21 09:50:18;;;;;;;;;;;26.10;51.30;;;;;;5133729;27;19936;-61
2022/08/21 09:52:51;;;;;;;;;;;26.20;51.40;;;;;;5132434;27;19920;-62
2022/08/21 09:58:08;;;;;;;;;;;26.50;51.10;;;;;;5127687;27;20364;-62
2022/08/21 10:00:35;;;;;;;;;;;26.50;50.20;;;;;;5122834;27;19926;-61
2022/08/21 10:03:09;;;;;;;;;;;26.60;50.00;;;;;;5128607;27;19927;-61
2022/08/21 10:05:36;;;;;;;;;;;26.80;48.60;;;;;;5131804;27;20410;-62
2022/08/21 10:08:04;;;;;;;;;;;26.80;47.70;;;;;;5126690;27;19923;-62
2022/08/21 10:10:31;;;;;;;;;;;26.60;47.30;;;;;;5134053;27;19919;-61
2022/08/21 10:13:04;;;;;;;;;;;26.40;47.80;;;;;;5135015;27;19926;-61
2022/08/21 10:15:36;;;;;;;;;;;26.20;48.10;;;;;;5131326;27;20361;-61
2022/08/21 10:18:07;;;;;;;;;;;26.10;48.00;;;;;;5128728;27;19919;-61
2022/08/21 10:20:38;;;;;;;;;;;26.00;47.90;;;;;;5131179;27;19919;-62
2022/08/21 10:23:11;;;;;;;;;;;26.00;47.50;;;;;;5130507;27;19919;-61
2022/08/21 10:25:41;;;;;;;;;;;26.20;47.80;;;;;;5134500;27;19923;-61
2022/08/21 10:28:18;;;;;;;;;;;26.50;47.40;;;;;;5128074;27;20388;-62
2022/08/21 10:30:49;;;;;;;;;;;26.60;46.20;;;;;;5133980;27;19920;-61
2022/08/21 10:33:21;;;;;;;;;;;26.40;46.00;;;;;;5130953;27;19938;-61
2022/08/21 10:35:51;;;;;;;;;;;26.30;44.60;;;;;;5128999;27;20477;-61
2022/08/21 10:38:35;;;;;;;;;;;26.30;44.70;;;;;;5136809;27;19930;-60
2022/08/21 10:41:06;;;;;;;;;;;26.30;45.20;;;;;;5132667;27;20219;-60
2022/08/21 10:43:37;;;;;;;;;;;26.40;46.00;;;;;;5132997;27;19942;-61
2022/08/21 10:46:10;;;;;;;;;;;26.40;44.90;;;;;;5128104;27;19919;-62
2022/08/21 10:48:38;;;;;;;;;;;26.30;44.70;;;;;;5134436;27;19929;-62
2022/08/21 10:51:08;;;;;;;;;;;26.20;45.20;;;;;;5131078;27;19927;-62
2022/08/21 10:53:42;;;;;;;;;;;26.00;45.20;;;;;;5132697;27;19972;-62
2022/08/21 10:56:13;;;;;;;;;;;25.90;46.50;;;;;;5133446;27;19920;-62
2022/08/21 10:58:43;;;;;;;;;;;25.90;46.00;;;;;;5134070;27;19934;-61
2022/08/21 11:01:12;;;;;;;;;;;25.90;45.60;;;;;;5126306;27;20258;-62
2022/08/21 11:03:41;;;;;;;;;;;25.90;45.90;;;;;;5131132;27;19923;-61
2022/08/21 11:06:11;;;;;;;;;;;26.10;45.90;;;;;;5136062;27;19919;-61
2022/08/21 11:08:39;;;;;;;;;;;26.30;46.00;;;;;;5132902;27;19927;-61
2022/08/21 11:11:09;;;;;;;;;;;26.50;46.00;;;;;;5126883;27;19938;-61
2022/08/21 11:13:39;;;;;;;;;;;26.60;45.80;;;;;;5131256;27;19920;-61
2022/08/21 11:16:08;;;;;;;;;;;26.70;46.10;;;;;;5125445;27;19926;-61
2022/08/21 11:18:38;;;;;;;;;;;26.80;44.80;;;;;;5123829;27;19923;-60
2022/08/21 11:21:09;;;;;;;;;;;26.70;44.90;;;;;;5124590;27;19919;-62
2022/08/21 11:23:42;;;;;;;;;;;26.60;44.90;;;;;;5131458;27;19927;-60
2022/08/21 11:26:10;;;;;;;;;;;26.50;43.50;;;;;;5125886;27;19920;-61
2022/08/21 11:28:41;;;;;;;;;;;26.50;42.70;;;;;;5129474;27;19923;-61
2022/08/21 11:31:25;;;;;;;;;;;26.50;43.30;;;;;;5130779;27;19919;-61
2022/08/21 11:34:00;;;;;;;;;;;26.70;42.70;;;;;;5131647;27;20337;-61
2022/08/21 11:36:31;;;;;;;;;;;26.80;44.00;;;;;;5128796;27;19923;-62
2022/08/21 11:39:03;;;;;;;;;;;26.90;43.50;;;;;;5123638;27;19919;-62
2022/08/21 11:41:31;;;;;;;;;;;27.00;43.60;;;;;;5127166;27;19957;-61
2022/08/21 11:44:02;;;;;;;;;;;27.10;43.40;;;;;;5128427;27;19934;-61
2022/08/21 11:46:34;;;;;;;;;;;27.10;43.10;;;;;;5130754;27;19919;-61
2022/08/21 11:49:12;;;;;;;;;;;27.20;42.40;;;;;;5133522;27;19920;-63
2022/08/21 11:51:40;;;;;;;;;;;27.30;42.90;;;;;;5129856;27;19931;-63
2022/08/21 11:54:12;;;;;;;;;;;27.30;42.60;;;;;;5132213;27;19931;-61
2022/08/21 11:56:41;;;;;;;;;;;27.40;41.60;;;;;;5129827;27;20018;-61
2022/08/21 11:59:10;;;;;;;;;;;27.50;42.10;;;;;;5123775;27;19919;-61
2022/08/21 12:01:40;;;;;;;;;;;27.50;42.70;;;;;;5128030;27;20390;-61
2022/08/21 12:04:10;;;;;;;;;;;27.50;42.40;;;;;;5118060;27;19983;-61
2022/08/21 12:06:38;;;;;;;;;;;27.50;42.70;;;;;;5132765;27;20376;-61
2022/08/21 12:09:06;;;;;;;;;;;27.60;43.10;;;;;;5125829;27;19923;-61
2022/08/21 12:11:46;;;;;;;;;;;27.60;43.00;;;;;;5133245;27;19919;-61
2022/08/21 12:14:14;;;;;;;;;;;27.60;43.20;;;;;;5130195;27;19945;-60
2022/08/21 12:16:41;;;;;;;;;;;27.60;41.10;;;;;;5132583;27;19923;-61
2022/08/21 12:19:10;;;;;;;;;;;27.60;41.70;;;;;;5133224;27;20030;-62
2022/08/21 12:21:48;;;;;;;;;;;27.60;41.10;;;;;;5127000;27;19927;-60
2022/08/21 12:24:21;;;;;;;;;;;27.40;40.80;;;;;;5132760;27;19919;-61
2022/08/21 12:26:52;;;;;;;;;;;27.30;40.40;;;;;;5127560;27;19927;-61
2022/08/21 12:29:23;;;;;;;;;;;27.10;41.50;;;;;;5129952;27;19919;-61
2022/08/21 12:31:52;;;;;;;;;;;27.00;40.20;;;;;;5131956;27;19919;-60
2022/08/21 12:34:21;;;;;;;;;;;26.90;40.60;;;;;;5120189;27;20300;-61
2022/08/21 12:36:50;;;;;;;;;;;26.90;41.00;;;;;;5127945;27;19929;-61
2022/08/21 12:39:20;;;;;;;;;;;26.80;41.40;;;;;;5131138;27;19920;-61
2022/08/21 12:41:48;;;;;;;;;;;27.00;41.90;;;;;;5127558;27;19920;-63
2022/08/21 12:44:17;;;;;;;;;;;27.00;41.90;;;;;;5129578;27;19963;-62
2022/08/21 12:46:46;;;;;;;;;;;27.10;41.80;;;;;;5131574;27;19967;-62
2022/08/21 12:49:15;;;;;;;;;;;27.10;40.70;;;;;;5126273;27;20436;-61
2022/08/21 12:51:49;;;;;;;;;;;27.20;41.10;;;;;;5130118;27;19937;-60
2022/08/21 12:54:23;;;;;;;;;;;27.20;42.20;;;;;;5129635;27;20372;-62
2022/08/21 12:56:56;;;;;;;;;;;27.30;41.30;;;;;;5127786;27;20471;-61
2022/08/21 12:59:23;;;;;;;;;;;27.40;41.80;;;;;;5128595;27;20306;-60
2022/08/21 13:01:51;;;;;;;;;;;27.40;41.80;;;;;;5131780;27;19980;-62
2022/08/21 13:04:20;;;;;;;;;;;27.50;40.70;;;;;;5127583;27;19923;-62
2022/08/21 13:06:51;;;;;;;;;;;27.50;40.60;;;;;;5125931;27;20226;-61
2022/08/21 13:09:19;;;;;;;;;;;27.60;39.60;;;;;;5128093;27;19923;-62
2022/08/21 13:11:47;;;;;;;;;;;27.60;39.50;;;;;;5126918;27;19920;-61
2022/08/21 13:14:18;;;;;;;;;;;27.60;39.40;;;;;;5127930;27;19973;-61
2022/08/21 13:16:46;;;;;;;;;;;27.60;39.50;;;;;;5126697;28;19923;-61
2022/08/21 13:19:18;;;;;;;;;;;27.60;40.70;;;;;;5122969;27;19942;-62
2022/08/21 13:21:46;;;;;;;;;;;27.60;40.60;;;;;;5129829;27;19919;-61
2022/08/21 13:24:17;;;;;;;;;;;27.40;41.10;;;;;;5126057;28;19919;-60
2022/08/21 13:26:44;;;;;;;;;;;27.30;41.00;;;;;;5129118;27;19927;-62
2022/08/21 13:29:12;;;;;;;;;;;27.40;39.90;;;;;;5129178;28;19919;-64
2022/08/21 13:31:40;;;;;;;;;;;27.40;39.70;;;;;;5130531;27;19927;-60
2022/08/21 13:34:08;;;;;;;;;;;27.30;40.70;;;;;;5131228;27;19979;-61
2022/08/21 13:36:36;;;;;;;;;;;27.30;40.40;;;;;;5129520;27;19919;-61
2022/08/21 13:39:04;;;;;;;;;;;27.40;40.10;;;;;;5136717;27;20395;-61
2022/08/21 13:41:34;;;;;;;;;;;27.40;40.20;;;;;;5128206;27;19926;-61
2022/08/21 13:44:02;;;;;;;;;;;27.30;40.80;;;;;;5131356;27;19923;-61
2022/08/21 13:46:30;;;;;;;;;;;27.30;40.00;;;;;;5130914;27;20297;-60
2022/08/21 13:48:59;;;;;;;;;;;27.10;40.00;;;;;;5130463;27;20356;-61
2022/08/21 13:51:25;;;;;;;;;;;27.10;41.20;;;;;;5129906;27;19919;-60
2022/08/21 13:53:54;;;;;;;;;;;27.10;41.50;;;;;;5131484;27;20163;-61
2022/08/21 13:56:25;;;;;;;;;;;27.00;42.20;;;;;;5130749;27;19920;-60
2022/08/21 13:58:54;;;;;;;;;;;27.00;40.40;;;;;;5128879;27;20353;-61
2022/08/21 14:01:22;;;;;;;;;;;27.00;41.80;;;;;;5128147;27;19923;-63
2022/08/21 14:03:50;;;;;;;;;;;27.00;42.10;;;;;;5134120;27;19933;-62
2022/08/21 14:06:18;;;;;;;;;;;27.00;42.00;;;;;;5128869;27;19919;-61
2022/08/21 14:08:49;;;;;;;;;;;26.90;41.50;;;;;;5130016;27;19919;-60
2022/08/21 14:11:16;;;;;;;;;;;26.90;40.70;;;;;;5127740;27;19923;-60
2022/08/21 14:13:44;;;;;;;;;;;26.90;41.60;;;;;;5128865;27;19926;-61
2022/08/21 14:16:14;;;;;;;;;;;26.80;41.60;;;;;;5129848;28;20284;-61
2022/08/21 14:18:44;;;;;;;;;;;26.90;42.30;;;;;;5128366;27;19927;-61
2022/08/21 14:21:11;;;;;;;;;;;26.80;41.80;;;;;;5124176;27;19920;-61
2022/08/21 14:23:38;;;;;;;;;;;26.80;42.40;;;;;;5131168;27;19924;-61
2022/08/21 14:26:06;;;;;;;;;;;26.90;40.90;;;;;;5123152;27;19926;-60
2022/08/21 14:28:35;;;;;;;;;;;26.80;41.00;;;;;;5129202;27;19919;-61